Airfield :
LOGIN :

Register | Disclaimer

   EN    FR    IT 

 










Legend :    VFR   Marginal VFR   IFR   Intensive IFR   Very Intensive IFR
Visi :
Ceiling :
>= 8 km
>= 3000ft
5 to 8 km
1000 to 3000 ft
1500m to 5 km
500 to 1000 ft
800 to 1500m
200 to 500 ft
< 800m
< 200 ft
Symbols :   Thunderstorms  Fog  Heavy snow  Heavy precipitations  Wind > 20 kt
SIGMETs :     Misc.  Thunderstorms  Icing  Turbulence  Mountain Waves  Volcanic Ashes






- Airport Elevation : 47 ft
- IATA code : BDS


LIBR - Casale Arpt. Brindisi

CURRENT METAR :
  • 041050Z 35012KT CAVOK 29/22 Q1014

EXPIRED METARs :
  • 041020Z 33012KT CAVOK 30/22 Q1014
  • 040950Z 34012KT CAVOK 29/22 Q1014
  • 040920Z 33013KT CAVOK 30/22 Q1014
  • 040850Z 33012KT CAVOK 29/21 Q1014
  • 040820Z 34012KT CAVOK 29/21 Q1014

TAF TAF LIBR
Valid from the 04 at 06:00 until the 05 at 06:00 UTC


040500Z 0406/0506 34012KT 9999 FEW010



MET'MAP, your aeronautical weather chart ! - Copyright ORBIFLY December 2007 - Disclaimer

ORBIFLY MET'MAP TEAM :

Programming & Development : Alexandra Zaïnal
Original concept : Baudouin d'Aumeries
Technical & hardware support : Manuel Goepfert
Assistance : Marc-Olivier Méhu




SOURCES & CREDITS :

   NOAA